createdAt,value
2019-05-25T00:02:02.894Z,95961.89
2019-05-25T00:04:29.964Z,95966.20
2019-05-25T00:06:57.056Z,95963.23
2019-05-25T00:09:24.129Z,95968.08
2019-05-25T00:11:51.221Z,95963.51
2019-05-25T00:14:18.298Z,95955.13
2019-05-25T00:16:45.379Z,95951.86
2019-05-25T00:19:12.437Z,95955.09
2019-05-25T00:21:41.151Z,95961.28
2019-05-25T00:24:12.049Z,95963.45
2019-05-25T00:26:37.193Z,95965.34
2019-05-25T00:29:04.240Z,95953.44
2019-05-25T00:31:31.332Z,95961.53
2019-05-25T00:33:58.377Z,95950.20
2019-05-25T00:36:25.457Z,95951.02
2019-05-25T00:38:52.521Z,95950.20
2019-05-25T00:41:19.647Z,95949.39
2019-05-25T00:43:46.691Z,95939.67
2019-05-25T00:46:13.787Z,95941.82
2019-05-25T00:48:40.858Z,95944.24
2019-05-25T00:51:07.958Z,95944.78
2019-05-25T00:53:35.015Z,95939.09
2019-05-25T00:56:02.086Z,95953.13
2019-05-25T00:58:29.148Z,95948.79
2019-05-25T01:00:56.298Z,95948.27
2019-05-25T01:03:23.337Z,95945.02
2019-05-25T01:05:50.406Z,95945.29
2019-05-25T01:08:17.478Z,95945.29
2019-05-25T01:10:44.585Z,95942.06
2019-05-25T01:13:11.660Z,95943.66
2019-05-25T01:15:38.776Z,95944.45
2019-05-25T01:18:05.812Z,95952.55
2019-05-25T01:20:32.872Z,95949.31
2019-05-25T01:22:59.958Z,95946.61
2019-05-25T01:25:27.168Z,95952.81
2019-05-25T01:27:54.226Z,95955.22
2019-05-25T01:30:22.805Z,95952.20
2019-05-25T01:32:49.880Z,95950.06
2019-05-25T01:35:16.951Z,95945.20
2019-05-25T01:37:44.035Z,95943.30
2019-05-25T01:40:15.080Z,95942.20
2019-05-25T01:42:42.176Z,95948.11
2019-05-25T01:45:09.354Z,95955.11
2019-05-25T01:47:36.402Z,95952.94
2019-05-25T01:50:03.564Z,95954.29
2019-05-25T01:52:30.648Z,95957.51
2019-05-25T01:55:00.165Z,95956.67
2019-05-25T01:57:26.740Z,95960.14
2019-05-25T01:59:53.828Z,95958.76
2019-05-25T02:02:20.910Z,95957.94
2019-05-25T02:04:47.941Z,95961.94
2019-05-25T02:07:15.031Z,95953.22
2019-05-25T02:09:42.120Z,95961.56
2019-05-25T02:12:09.177Z,95959.16
2019-05-25T02:14:36.253Z,95955.91
2019-05-25T02:17:03.468Z,95955.63
2019-05-25T02:19:30.540Z,95959.92
2019-05-25T02:21:57.621Z,95958.27
2019-05-25T02:24:24.688Z,95964.45
2019-05-25T02:26:51.777Z,95955.81
2019-05-25T02:29:19.010Z,95952.00
2019-05-25T02:31:46.103Z,95950.64
2019-05-25T02:34:13.150Z,95955.73
2019-05-25T02:36:40.240Z,95954.37
2019-05-25T02:39:07.363Z,95949.50
2019-05-25T02:41:34.568Z,95952.14
2019-05-25T02:44:01.791Z,95950.49
2019-05-25T02:46:28.895Z,95949.94
2019-05-25T02:48:55.946Z,95955.83
2019-05-25T02:51:23.043Z,95950.14
2019-05-25T02:53:50.116Z,95951.46
2019-05-25T02:56:17.220Z,95952.78
2019-05-25T02:58:44.347Z,95945.23
2019-05-25T03:01:11.411Z,95960.25
2019-05-25T03:03:38.492Z,95953.98
2019-05-25T03:06:05.691Z,95951.55
2019-05-25T03:08:33.250Z,95959.34
2019-05-25T03:11:00.332Z,95963.64
2019-05-25T03:13:30.799Z,95964.98
2019-05-25T03:15:57.892Z,95960.66
2019-05-25T03:18:24.977Z,95965.20
2019-05-25T03:20:52.070Z,95970.53
2019-05-25T03:23:19.171Z,95970.19
2019-05-25T03:25:49.610Z,95970.69
2019-05-25T03:28:15.209Z,95967.40
2019-05-25T03:30:42.316Z,95970.06
2019-05-25T03:33:09.418Z,95960.92
2019-05-25T03:35:36.463Z,95963.36
2019-05-25T03:38:03.602Z,95972.81
2019-05-25T03:40:30.619Z,95964.74
2019-05-25T03:42:57.695Z,95969.91
2019-05-25T03:45:24.773Z,95970.97
2019-05-25T03:47:51.833Z,95970.69
2019-05-25T03:50:18.995Z,95974.97
2019-05-25T03:52:46.189Z,95977.95
2019-05-25T03:55:14.911Z,95974.47
2019-05-25T03:57:42.001Z,95974.47
2019-05-25T04:00:09.306Z,95967.53
2019-05-25T04:02:36.379Z,95968.43
2019-05-25T04:05:03.763Z,95970.37
2019-05-25T04:07:30.848Z,95974.13
2019-05-25T04:09:57.921Z,95970.11
2019-05-25T04:12:25.007Z,95970.42
2019-05-25T04:14:52.063Z,95978.56
2019-05-25T04:17:19.146Z,95969.95
2019-05-25T04:19:46.265Z,95975.87
2019-05-25T04:22:13.306Z,95976.97
2019-05-25T04:24:40.417Z,95967.59
2019-05-25T04:27:07.482Z,95976.63
2019-05-25T04:29:34.558Z,95983.51
2019-05-25T04:32:01.630Z,95988.20
2019-05-25T04:34:28.669Z,95990.70
2019-05-25T04:36:55.771Z,95986.99
2019-05-25T04:39:22.853Z,95993.22
2019-05-25T04:41:49.932Z,95989.78
2019-05-25T04:44:17.009Z,95994.43
2019-05-25T04:46:44.097Z,95992.85
2019-05-25T04:49:11.191Z,95992.66
2019-05-25T04:51:38.270Z,95995.12
2019-05-25T04:54:05.351Z,95990.53
2019-05-25T04:56:39.324Z,95999.16
2019-05-25T04:59:01.450Z,95992.78
2019-05-25T05:01:28.521Z,95992.08
2019-05-25T05:03:55.637Z,95987.27
2019-05-25T05:06:22.695Z,95992.95
2019-05-25T05:08:49.773Z,95994.08
2019-05-25T05:11:16.837Z,95996.03
2019-05-25T05:13:43.917Z,95990.92
2019-05-25T05:16:11.013Z,95995.27
2019-05-25T05:18:38.075Z,95987.15
2019-05-25T05:21:05.164Z,95990.38
2019-05-25T05:23:32.257Z,95983.89
2019-05-25T05:25:59.344Z,95987.15
2019-05-25T05:28:26.389Z,95987.93
2019-05-25T05:30:53.485Z,95992.23
2019-05-25T05:33:20.610Z,95985.15
2019-05-25T05:35:48.297Z,95993.52
2019-05-25T05:38:15.526Z,95992.41
2019-05-25T05:40:42.607Z,95992.41
2019-05-25T05:43:10.645Z,95986.92
2019-05-25T05:45:40.363Z,95994.98
2019-05-25T05:48:09.450Z,95994.44
2019-05-25T05:50:37.247Z,95994.44
2019-05-25T05:53:04.319Z,96002.22
2019-05-25T05:55:31.889Z,95996.47
2019-05-25T05:57:59.252Z,96000.75
2019-05-25T06:00:26.338Z,96002.08
2019-05-25T06:02:53.427Z,96011.01
2019-05-25T06:05:20.523Z,96012.56
2019-05-25T06:07:47.643Z,96010.94
2019-05-25T06:10:17.566Z,96008.76
2019-05-25T06:12:44.655Z,96020.41
2019-05-25T06:15:12.086Z,96017.68
2019-05-25T06:17:39.138Z,96018.74
2019-05-25T06:20:07.175Z,96009.75
2019-05-25T06:22:34.251Z,96017.88
2019-05-25T06:25:01.340Z,96013.52
2019-05-25T06:27:28.439Z,96018.89
2019-05-25T06:29:55.533Z,96020.70
2019-05-25T06:32:22.620Z,96016.84
2019-05-25T06:34:49.681Z,96026.80
2019-05-25T06:37:16.723Z,96020.75
2019-05-25T06:39:43.827Z,96018.73
2019-05-25T06:42:10.905Z,96024.84
2019-05-25T06:44:38.005Z,96018.50
2019-05-25T06:47:05.057Z,96023.25
2019-05-25T06:49:32.132Z,96022.64
2019-05-25T06:51:59.221Z,96017.91
2019-05-25T06:54:26.331Z,96022.72
2019-05-25T06:56:53.358Z,96016.91
2019-05-25T06:59:20.444Z,96021.43
2019-05-25T07:01:47.507Z,96019.46
2019-05-25T07:04:14.596Z,96019.66
2019-05-25T07:06:41.660Z,96020.91
2019-05-25T07:09:08.735Z,96024.17
2019-05-25T07:11:35.847Z,96029.03
2019-05-25T07:14:03.025Z,96031.86
2019-05-25T07:16:30.099Z,96037.14
2019-05-25T07:18:57.332Z,96032.48
2019-05-25T07:21:24.427Z,96027.75
2019-05-25T07:23:51.473Z,96028.95
2019-05-25T07:26:18.564Z,96031.34
2019-05-25T07:28:45.619Z,96028.77
2019-05-25T07:31:12.705Z,96031.68
2019-05-25T07:33:39.751Z,96029.70
2019-05-25T07:36:07.701Z,96033.41
2019-05-25T07:38:35.106Z,96029.73
2019-05-25T07:41:02.189Z,96034.73
2019-05-25T07:43:29.234Z,96034.59
2019-05-25T07:45:56.293Z,96034.42
2019-05-25T07:48:23.354Z,96037.59
2019-05-25T07:50:50.431Z,96031.13
2019-05-25T07:53:17.542Z,96028.95
2019-05-25T07:55:44.618Z,96034.05
2019-05-25T07:58:17.377Z,96025.53
2019-05-25T08:00:51.068Z,96027.33
2019-05-25T08:03:18.173Z,96035.33
2019-05-25T08:05:45.296Z,96034.30
2019-05-25T08:08:12.388Z,96030.32
2019-05-25T08:10:39.520Z,96028.35
2019-05-25T08:13:06.733Z,96023.27
2019-05-25T08:15:33.850Z,96025.42
2019-05-25T08:18:00.975Z,96034.46
2019-05-25T08:20:28.038Z,96027.08
2019-05-25T08:22:55.157Z,96031.07
2019-05-25T08:25:22.295Z,96029.95
2019-05-25T08:27:49.386Z,96023.77
2019-05-25T08:30:16.820Z,96024.87
2019-05-25T08:32:43.890Z,96025.55
2019-05-25T08:35:11.112Z,96026.84
2019-05-25T08:37:38.194Z,96023.52
2019-05-25T08:40:46.155Z,96026.72
2019-05-25T08:43:13.224Z,96026.16
2019-05-25T08:45:40.321Z,96032.94
2019-05-25T08:48:07.389Z,96027.84
2019-05-25T08:50:38.327Z,96029.70
2019-05-25T08:53:03.437Z,96035.67
2019-05-25T08:55:30.518Z,96029.27
2019-05-25T08:57:57.591Z,96029.08
2019-05-25T09:00:24.779Z,96024.69
2019-05-25T09:02:51.906Z,96027.30
2019-05-25T09:05:18.934Z,96025.69
2019-05-25T09:07:46.026Z,96021.95
2019-05-25T09:10:16.748Z,96024.52
2019-05-25T09:12:43.824Z,96024.31
2019-05-25T09:15:11.318Z,96024.56
2019-05-25T09:17:38.394Z,96021.68
2019-05-25T09:20:05.640Z,96025.33
2019-05-25T09:22:32.736Z,96023.95
2019-05-25T09:24:59.845Z,96024.63
2019-05-25T09:27:26.939Z,96021.30
2019-05-25T09:29:54.004Z,96020.83
2019-05-25T09:32:21.121Z,96019.52
2019-05-25T09:34:48.208Z,96018.83
2019-05-25T09:37:15.261Z,96025.43
2019-05-25T09:39:42.326Z,96015.05
2019-05-25T09:42:09.393Z,96020.02
2019-05-25T09:44:36.466Z,96013.98
2019-05-25T09:47:03.533Z,96012.57
2019-05-25T09:49:30.609Z,96009.96
2019-05-25T09:51:57.720Z,96000.37
2019-05-25T09:54:24.852Z,96010.02
2019-05-25T09:56:51.950Z,96008.77
2019-05-25T09:59:20.429Z,96000.31
2019-05-25T10:01:47.756Z,96011.55
2019-05-25T10:04:14.834Z,96006.55
2019-05-25T10:06:41.916Z,96009.06
2019-05-25T10:09:08.973Z,96006.78
2019-05-25T10:11:36.048Z,96004.06
2019-05-25T10:14:03.182Z,96002.07
2019-05-25T10:16:30.249Z,95998.95
2019-05-25T10:18:57.325Z,95987.30
2019-05-25T10:21:24.416Z,95988.11
2019-05-25T10:23:51.508Z,95986.66
2019-05-25T10:26:18.579Z,95985.73
2019-05-25T10:28:45.682Z,95981.29
2019-05-25T10:31:12.768Z,95981.22
2019-05-25T10:33:39.957Z,95981.86
2019-05-25T10:36:07.072Z,95974.73
2019-05-25T10:38:34.171Z,95971.92
2019-05-25T10:41:01.331Z,95971.90
2019-05-25T10:43:28.430Z,95971.94
2019-05-25T10:45:55.484Z,95961.98
2019-05-25T10:48:22.579Z,95967.56
2019-05-25T10:50:49.662Z,95960.56
2019-05-25T10:53:16.751Z,95964.45
2019-05-25T10:55:43.847Z,95961.70
2019-05-25T10:58:10.927Z,95962.41
2019-05-25T11:00:38.013Z,95957.97
2019-05-25T11:03:05.103Z,95952.70
2019-05-25T11:05:32.239Z,95950.13
2019-05-25T11:07:59.353Z,95948.59
2019-05-25T11:10:26.435Z,95934.80
2019-05-25T11:12:53.539Z,95938.93
2019-05-25T11:15:20.646Z,95934.80
2019-05-25T11:17:47.784Z,95937.85
2019-05-25T11:20:15.884Z,95934.77
2019-05-25T11:22:42.974Z,95930.89
2019-05-25T11:25:15.385Z,95928.22
2019-05-25T11:27:42.463Z,95926.64
2019-05-25T11:30:30.855Z,95923.31
2019-05-25T11:32:57.961Z,95916.78
2019-05-25T11:35:25.055Z,95919.53
2019-05-25T11:37:52.170Z,95911.30
2019-05-25T11:43:20.215Z,95900.05
2019-05-25T11:45:47.324Z,95888.98
2019-05-25T11:48:14.430Z,95886.89
2019-05-25T11:50:41.523Z,95889.20
2019-05-25T11:53:08.616Z,95882.34
2019-05-25T11:55:35.709Z,95885.16
2019-05-25T11:58:02.773Z,95882.72
2019-05-25T12:00:29.862Z,95881.61
2019-05-25T12:02:56.918Z,95875.67
2019-05-25T12:05:24.019Z,95878.30
2019-05-25T12:07:51.190Z,95876.66
2019-05-25T12:10:18.937Z,95875.76
2019-05-25T12:12:46.036Z,95873.06
2019-05-25T12:15:13.332Z,95875.57
2019-05-25T12:17:40.403Z,95879.18
2019-05-25T12:20:28.792Z,95876.52
2019-05-25T12:22:55.890Z,95872.02
2019-05-25T12:25:23.059Z,95866.58
2019-05-25T12:27:50.120Z,95868.61
2019-05-25T12:33:19.190Z,95862.25
2019-05-25T12:35:46.300Z,95864.85
2019-05-25T12:38:13.395Z,95865.48
2019-05-25T12:40:53.263Z,95856.61
2019-05-25T12:43:16.307Z,95850.73
2019-05-25T12:45:43.384Z,95863.26
2019-05-25T12:48:10.464Z,95847.39
2019-05-25T12:50:37.534Z,95858.38
2019-05-25T12:53:04.673Z,95852.02
2019-05-25T12:55:31.782Z,95849.67
2019-05-25T12:57:58.883Z,95853.62
2019-05-25T13:00:25.979Z,95847.64
2019-05-25T13:02:53.056Z,95850.73
2019-05-25T13:05:33.070Z,95850.00
2019-05-25T13:07:49.091Z,95849.58
2019-05-25T13:10:17.274Z,95860.89
2019-05-25T13:12:44.359Z,95853.63
2019-05-25T13:15:11.628Z,95847.73
2019-05-25T13:17:38.678Z,95856.55
2019-05-25T13:20:05.801Z,95857.46
2019-05-25T13:22:32.904Z,95852.02
2019-05-25T13:24:59.980Z,95859.92
2019-05-25T13:27:27.060Z,95845.89
2019-05-25T13:29:54.212Z,95853.80
2019-05-25T13:32:21.290Z,95855.19
2019-05-25T13:34:48.393Z,95851.70
2019-05-25T13:37:17.765Z,95855.48
2019-05-25T13:39:50.887Z,95852.20
2019-05-25T13:42:18.051Z,95847.55
2019-05-25T13:44:45.143Z,95844.34
2019-05-25T13:47:12.234Z,95846.83
2019-05-25T13:49:39.338Z,95847.97
2019-05-25T13:52:06.416Z,95846.17
2019-05-25T13:54:33.527Z,95840.56
2019-05-25T13:57:00.604Z,95853.08
2019-05-25T13:59:27.682Z,95847.58
2019-05-25T14:01:54.769Z,95852.94
2019-05-25T14:04:21.892Z,95861.09
2019-05-25T14:06:48.966Z,95860.28
2019-05-25T14:09:16.169Z,95854.72
2019-05-25T14:11:43.314Z,95858.95
2019-05-25T14:14:10.417Z,95858.52
2019-05-25T14:16:37.489Z,95863.11
2019-05-25T14:19:04.617Z,95864.14
2019-05-25T14:21:31.774Z,95867.08
2019-05-25T14:23:58.877Z,95868.88
2019-05-25T14:26:25.957Z,95862.81
2019-05-25T14:28:53.015Z,95869.20
2019-05-25T14:31:20.117Z,95870.19
2019-05-25T14:33:47.225Z,95866.95
2019-05-25T14:36:14.292Z,95870.09
2019-05-25T14:38:41.387Z,95869.36
2019-05-25T14:41:08.483Z,95866.05
2019-05-25T14:43:35.544Z,95875.05
2019-05-25T14:46:02.638Z,95864.88
2019-05-25T14:48:29.804Z,95860.19
2019-05-25T14:50:56.852Z,95865.32
2019-05-25T14:53:23.921Z,95860.48
2019-05-25T14:55:50.998Z,95863.84
2019-05-25T14:58:18.094Z,95862.14
2019-05-25T15:00:45.332Z,95864.65
2019-05-25T15:03:12.366Z,95867.39
2019-05-25T15:05:39.449Z,95863.28
2019-05-25T15:08:06.499Z,95862.75
2019-05-25T15:10:33.576Z,95863.67
2019-05-25T15:13:00.677Z,95866.98
2019-05-25T15:15:27.718Z,95873.16
2019-05-25T15:17:54.782Z,95867.02
2019-05-25T15:20:21.830Z,95867.10
2019-05-25T15:22:48.918Z,95874.61
2019-05-25T15:25:18.088Z,95877.42
2019-05-25T15:27:45.187Z,95877.37
2019-05-25T15:30:12.368Z,95880.23
2019-05-25T15:32:39.462Z,95887.25
2019-05-25T15:35:06.732Z,95883.00
2019-05-25T15:37:33.811Z,95892.10
2019-05-25T15:40:00.895Z,95886.16
2019-05-25T15:42:28.639Z,95895.28
2019-05-25T15:44:55.711Z,95893.31
2019-05-25T15:47:22.775Z,95897.08
2019-05-25T15:49:49.849Z,95902.77
2019-05-25T15:52:16.928Z,95893.27
2019-05-25T15:54:43.986Z,95896.64
2019-05-25T15:57:11.072Z,95905.23
2019-05-25T15:59:38.149Z,95905.61
2019-05-25T16:02:05.430Z,95913.08
2019-05-25T16:04:32.605Z,95912.52
2019-05-25T16:06:59.665Z,95917.27
2019-05-25T16:09:26.711Z,95919.95
2019-05-25T16:11:53.796Z,95923.59
2019-05-25T16:14:20.896Z,95925.28
2019-05-25T16:16:47.993Z,95929.16
2019-05-25T16:19:15.092Z,95935.05
2019-05-25T16:21:42.196Z,95935.77
2019-05-25T16:24:09.329Z,95940.59
2019-05-25T16:26:45.394Z,95949.41
2019-05-25T16:29:05.375Z,95951.33
2019-05-25T16:31:32.455Z,95942.53
2019-05-25T16:33:59.537Z,95945.08
2019-05-25T16:36:26.619Z,95941.08
2019-05-25T16:38:53.703Z,95946.25
2019-05-25T16:41:20.857Z,95949.58
2019-05-25T16:43:48.019Z,95950.14
2019-05-25T16:46:15.111Z,95949.63
2019-05-25T16:48:42.195Z,95952.96
2019-05-25T16:51:09.338Z,95951.52
2019-05-25T16:53:36.418Z,95960.11
2019-05-25T16:56:03.545Z,95960.02
2019-05-25T16:58:30.649Z,95961.27
2019-05-25T17:00:58.101Z,95960.62
2019-05-25T17:03:28.655Z,95966.49
2019-05-25T17:05:54.203Z,95963.80
2019-05-25T17:08:21.295Z,95967.71
2019-05-25T17:10:48.384Z,95975.69
2019-05-25T17:13:15.473Z,95982.12
2019-05-25T17:15:42.569Z,95980.70
2019-05-25T17:18:09.652Z,95984.55
2019-05-25T17:20:36.723Z,95981.54
2019-05-25T17:23:03.781Z,95983.13
2019-05-25T17:25:30.918Z,95990.70
2019-05-25T17:27:57.990Z,95992.58
2019-05-25T17:30:37.468Z,96001.91
2019-05-25T17:33:04.984Z,95999.37
2019-05-25T17:35:32.092Z,96006.01
2019-05-25T17:37:59.155Z,96002.80
2019-05-25T17:40:26.280Z,96009.05
2019-05-25T17:42:53.379Z,96009.30
2019-05-25T17:45:20.483Z,96011.48
2019-05-25T17:47:47.622Z,96015.03
2019-05-25T17:50:14.661Z,96019.95
2019-05-25T17:52:41.842Z,96018.94
2019-05-25T17:55:13.283Z,96016.02
2019-05-25T17:57:40.572Z,96017.75
2019-05-25T18:00:08.064Z,96029.59
2019-05-25T18:02:35.276Z,96027.71
2019-05-25T18:05:02.387Z,96029.70
2019-05-25T18:07:29.509Z,96033.88
2019-05-25T18:09:56.563Z,96034.57
2019-05-25T18:12:24.470Z,96036.88
2019-05-25T18:14:51.539Z,96053.51
2019-05-25T18:17:18.630Z,96056.33
2019-05-25T18:19:45.759Z,96053.69
2019-05-25T18:22:12.864Z,96057.57
2019-05-25T18:24:42.531Z,96056.52
2019-05-25T18:27:09.672Z,96058.52
2019-05-25T18:29:36.745Z,96055.87
2019-05-25T18:32:03.992Z,96055.91
2019-05-25T18:34:31.040Z,96062.98
2019-05-25T18:36:58.121Z,96062.23
2019-05-25T18:39:25.199Z,96058.99
2019-05-25T18:41:52.304Z,96067.94
2019-05-25T18:44:19.447Z,96071.19
2019-05-25T18:46:46.561Z,96074.72
2019-05-25T18:49:13.647Z,96076.90
2019-05-25T18:51:40.768Z,96074.19
2019-05-25T18:54:07.832Z,96076.34
2019-05-25T18:56:34.928Z,96068.48
2019-05-25T18:59:02.054Z,96074.45
2019-05-25T19:01:29.127Z,96071.74
2019-05-25T19:03:56.246Z,96066.58
2019-05-25T19:06:23.322Z,96065.45
2019-05-25T19:08:50.430Z,96069.30
2019-05-25T19:11:17.524Z,96063.34
2019-05-25T19:13:44.717Z,96070.41
2019-05-25T19:16:11.887Z,96082.89
2019-05-25T19:18:38.966Z,96088.87
2019-05-25T19:21:06.082Z,96085.88
2019-05-25T19:23:33.174Z,96088.91
2019-05-25T19:26:00.301Z,96098.13
2019-05-25T19:28:27.403Z,96089.72
2019-05-25T19:30:54.534Z,96095.09
2019-05-25T19:33:21.635Z,96098.89
2019-05-25T19:35:48.719Z,96109.47
2019-05-25T19:38:15.836Z,96124.69
2019-05-25T19:40:42.921Z,96126.06
2019-05-25T19:43:10.036Z,96129.63
2019-05-25T19:45:37.124Z,96128.27
2019-05-25T19:48:04.339Z,96140.47
2019-05-25T19:50:31.425Z,96138.31
2019-05-25T19:52:58.526Z,96145.08
2019-05-25T19:55:25.943Z,96155.11
2019-05-25T19:57:53.116Z,96148.34
2019-05-25T20:00:20.321Z,96155.66
2019-05-25T20:02:47.417Z,96158.40
2019-05-25T20:05:16.994Z,96157.05
2019-05-25T20:07:43.772Z,96157.05
2019-05-25T20:10:15.054Z,96153.25
2019-05-25T20:12:42.286Z,96153.25
2019-05-25T20:15:09.669Z,96155.42
2019-05-25T20:17:36.746Z,96152.47
2019-05-25T20:20:04.242Z,96152.47
2019-05-25T20:22:31.315Z,96162.73
2019-05-25T20:24:58.418Z,96175.46
2019-05-25T20:27:25.514Z,96174.92
2019-05-25T20:29:52.648Z,96180.07
2019-05-25T20:32:19.930Z,96180.07
2019-05-25T20:34:47.005Z,96189.28
2019-05-25T20:37:14.077Z,96180.34
2019-05-25T20:39:53.948Z,96180.07
2019-05-25T20:42:33.961Z,96185.77
2019-05-25T20:45:01.082Z,96185.77
2019-05-25T20:47:47.618Z,96179.26
2019-05-25T20:50:14.839Z,96179.26
2019-05-25T20:52:41.957Z,96184.67
2019-05-25T20:55:13.467Z,96183.32
2019-05-25T20:57:40.739Z,96183.32
2019-05-25T21:00:07.951Z,96197.37
2019-05-25T21:02:35.031Z,96193.59
2019-05-25T21:05:02.142Z,96197.68
2019-05-25T21:07:29.211Z,96197.68
2019-05-25T21:09:56.295Z,96195.23
2019-05-25T21:12:23.439Z,96197.67
2019-05-25T21:14:50.573Z,96206.07
2019-05-25T21:17:17.673Z,96205.80
2019-05-25T21:19:44.748Z,96205.80
2019-05-25T21:22:11.824Z,96202.28
2019-05-25T21:24:38.939Z,96206.34
2019-05-25T21:27:06.028Z,96199.05
2019-05-25T21:29:33.116Z,96207.72
2019-05-25T21:32:00.171Z,96194.17
2019-05-25T21:34:27.308Z,96201.21
2019-05-25T21:36:54.439Z,96207.17
2019-05-25T21:39:21.543Z,96207.17
2019-05-25T21:41:48.646Z,96211.77
2019-05-25T21:44:15.743Z,96211.23
2019-05-25T21:46:42.822Z,96211.23
2019-05-25T21:49:09.910Z,96218.27
2019-05-25T21:51:37.032Z,96213.95
2019-05-25T21:54:04.149Z,96217.47
2019-05-25T21:56:31.242Z,96217.47
2019-05-25T21:58:58.327Z,96214.48
2019-05-25T22:01:25.459Z,96216.61
2019-05-25T22:03:52.540Z,96216.61
2019-05-25T22:06:24.305Z,96202.25
2019-05-25T22:08:48.611Z,96199.56
2019-05-25T22:11:15.685Z,96209.83
2019-05-25T22:13:42.778Z,96209.55
2019-05-25T22:16:09.867Z,96208.73
2019-05-25T22:18:36.961Z,96207.68
2019-05-25T22:21:04.021Z,96201.98
2019-05-25T22:23:31.076Z,96198.74
2019-05-25T22:25:58.161Z,96198.74
2019-05-25T22:28:25.269Z,96202.80
2019-05-25T22:30:52.372Z,96199.00
2019-05-25T22:33:19.452Z,96192.23
2019-05-25T22:35:46.575Z,96192.23
2019-05-25T22:38:13.667Z,96196.02
2019-05-25T22:40:40.970Z,96198.45
2019-05-25T22:43:08.023Z,96201.97
2019-05-25T22:45:35.108Z,96192.75
2019-05-25T22:48:02.191Z,96204.13
2019-05-25T22:50:29.249Z,96211.70
2019-05-25T22:52:56.353Z,96206.84
2019-05-25T22:55:23.417Z,96206.84
2019-05-25T22:57:50.495Z,96203.33
2019-05-25T23:00:17.601Z,96203.85
2019-05-25T23:02:44.740Z,96190.03
2019-05-25T23:05:13.265Z,96198.14
2019-05-25T23:07:40.359Z,96198.14
2019-05-25T23:10:08.139Z,96194.62
2019-05-25T23:12:35.244Z,96194.62
2019-05-25T23:15:02.648Z,96193.81
2019-05-25T23:17:29.751Z,96189.48
2019-05-25T23:19:56.843Z,96197.84
2019-05-25T23:22:23.921Z,96197.84
2019-05-25T23:24:51.209Z,96200.00
2019-05-25T23:27:18.429Z,96190.52
2019-05-25T23:29:45.495Z,96190.52
2019-05-25T23:32:12.582Z,96193.21
2019-05-25T23:34:39.674Z,96191.34
2019-05-25T23:37:14.630Z,96191.34
2019-05-25T23:39:35.764Z,96192.95
2019-05-25T23:42:02.854Z,96187.83
2019-05-25T23:44:29.915Z,96183.76
2019-05-25T23:46:57.037Z,96187.54
2019-05-25T23:49:24.134Z,96201.05
2019-05-25T23:51:51.196Z,96185.08
2019-05-25T23:54:18.299Z,96187.52
2019-05-25T23:56:45.365Z,96180.75
2019-05-25T23:59:12.478Z,96195.63
